sensor_id;sensor_type;location;lat;lon;timestamp;P1;durP1;ratioP1;P2;durP2;ratioP2
78858;SDS011;68210;52.032;4.634;2024-03-17T00:01:55;10.05;;;4.00;;
78858;SDS011;68210;52.032;4.634;2024-03-17T00:03:55;5.88;;;4.00;;
78858;SDS011;68210;52.032;4.634;2024-03-17T00:05:59;8.07;;;4.07;;
78858;SDS011;68210;52.032;4.634;2024-03-17T00:08:00;10.25;;;4.22;;
78858;SDS011;68210;52.032;4.634;2024-03-17T00:10:00;10.15;;;4.53;;
78858;SDS011;68210;52.032;4.634;2024-03-17T00:12:01;7.75;;;3.67;;
78858;SDS011;68210;52.032;4.634;2024-03-17T00:14:01;6.47;;;3.80;;
78858;SDS011;68210;52.032;4.634;2024-03-17T00:16:02;12.00;;;4.18;;
78858;SDS011;68210;52.032;4.634;2024-03-17T00:18:03;7.68;;;3.80;;
78858;SDS011;68210;52.032;4.634;2024-03-17T00:20:04;10.02;;;4.15;;
78858;SDS011;68210;52.032;4.634;2024-03-17T00:22:10;11.23;;;4.75;;
78858;SDS011;68210;52.032;4.634;2024-03-17T00:24:13;17.13;;;4.93;;
78858;SDS011;68210;52.032;4.634;2024-03-17T00:26:13;10.02;;;4.03;;
78858;SDS011;68210;52.032;4.634;2024-03-17T00:28:14;6.20;;;3.28;;
78858;SDS011;68210;52.032;4.634;2024-03-17T00:30:14;9.38;;;4.50;;
78858;SDS011;68210;52.032;4.634;2024-03-17T00:32:15;8.07;;;4.07;;
78858;SDS011;68210;52.032;4.634;2024-03-17T00:34:17;10.25;;;3.85;;
78858;SDS011;68210;52.032;4.634;2024-03-17T00:36:19;9.32;;;4.90;;
78858;SDS011;68210;52.032;4.634;2024-03-17T00:38:19;12.43;;;5.05;;
78858;SDS011;68210;52.032;4.634;2024-03-17T00:40:20;8.10;;;3.80;;
78858;SDS011;68210;52.032;4.634;2024-03-17T00:42:20;8.25;;;4.13;;
78858;SDS011;68210;52.032;4.634;2024-03-17T00:44:21;9.20;;;4.38;;
78858;SDS011;68210;52.032;4.634;2024-03-17T00:46:21;8.32;;;4.10;;
78858;SDS011;68210;52.032;4.634;2024-03-17T00:48:22;9.35;;;4.20;;
78858;SDS011;68210;52.032;4.634;2024-03-17T00:50:22;10.38;;;4.55;;
78858;SDS011;68210;52.032;4.634;2024-03-17T00:52:23;8.13;;;3.72;;
78858;SDS011;68210;52.032;4.634;2024-03-17T00:54:23;11.05;;;4.00;;
78858;SDS011;68210;52.032;4.634;2024-03-17T00:56:24;8.43;;;4.05;;
78858;SDS011;68210;52.032;4.634;2024-03-17T00:58:24;8.90;;;4.40;;
78858;SDS011;68210;52.032;4.634;2024-03-17T01:00:24;12.75;;;4.53;;
78858;SDS011;68210;52.032;4.634;2024-03-17T01:02:25;9.55;;;4.22;;
78858;SDS011;68210;52.032;4.634;2024-03-17T01:04:25;11.60;;;4.18;;
78858;SDS011;68210;52.032;4.634;2024-03-17T01:06:25;11.15;;;4.60;;
78858;SDS011;68210;52.032;4.634;2024-03-17T01:08:26;8.98;;;4.57;;
78858;SDS011;68210;52.032;4.634;2024-03-17T01:10:26;10.32;;;4.22;;
78858;SDS011;68210;52.032;4.634;2024-03-17T01:12:26;7.13;;;4.68;;
78858;SDS011;68210;52.032;4.634;2024-03-17T01:14:27;8.10;;;4.22;;
78858;SDS011;68210;52.032;4.634;2024-03-17T01:16:28;9.25;;;4.03;;
78858;SDS011;68210;52.032;4.634;2024-03-17T01:18:28;8.30;;;4.40;;
78858;SDS011;68210;52.032;4.634;2024-03-17T01:20:28;11.07;;;4.82;;
78858;SDS011;68210;52.032;4.634;2024-03-17T01:22:29;6.75;;;3.80;;
78858;SDS011;68210;52.032;4.634;2024-03-17T01:24:29;12.55;;;4.28;;
78858;SDS011;68210;52.032;4.634;2024-03-17T01:26:31;14.15;;;4.70;;
78858;SDS011;68210;52.032;4.634;2024-03-17T01:28:31;11.05;;;4.05;;
78858;SDS011;68210;52.032;4.634;2024-03-17T01:30:32;8.27;;;4.13;;
78858;SDS011;68210;52.032;4.634;2024-03-17T01:32:34;9.60;;;4.88;;
78858;SDS011;68210;52.032;4.634;2024-03-17T01:34:34;9.35;;;4.35;;
78858;SDS011;68210;52.032;4.634;2024-03-17T01:36:35;9.35;;;5.25;;
78858;SDS011;68210;52.032;4.634;2024-03-17T01:38:35;8.32;;;4.30;;
78858;SDS011;68210;52.032;4.634;2024-03-17T01:40:36;11.95;;;5.15;;
78858;SDS011;68210;52.032;4.634;2024-03-17T01:42:37;8.60;;;4.53;;
78858;SDS011;68210;52.032;4.634;2024-03-17T01:44:38;8.10;;;4.45;;
78858;SDS011;68210;52.032;4.634;2024-03-17T01:46:38;10.55;;;4.50;;
78858;SDS011;68210;52.032;4.634;2024-03-17T01:48:39;8.90;;;4.55;;
78858;SDS011;68210;52.032;4.634;2024-03-17T01:50:40;12.23;;;4.95;;
78858;SDS011;68210;52.032;4.634;2024-03-17T01:52:41;7.97;;;4.63;;
78858;SDS011;68210;52.032;4.634;2024-03-17T01:54:42;9.88;;;4.45;;
78858;SDS011;68210;52.032;4.634;2024-03-17T01:56:43;7.50;;;4.63;;
78858;SDS011;68210;52.032;4.634;2024-03-17T01:58:44;11.82;;;5.32;;
78858;SDS011;68210;52.032;4.634;2024-03-17T02:00:45;8.90;;;6.15;;
78858;SDS011;68210;52.032;4.634;2024-03-17T02:02:45;8.52;;;5.45;;
78858;SDS011;68210;52.032;4.634;2024-03-17T02:04:46;9.35;;;5.30;;
78858;SDS011;68210;52.032;4.634;2024-03-17T02:06:46;9.95;;;5.15;;
78858;SDS011;68210;52.032;4.634;2024-03-17T02:08:47;9.40;;;5.07;;
78858;SDS011;68210;52.032;4.634;2024-03-17T02:10:54;9.23;;;5.65;;
78858;SDS011;68210;52.032;4.634;2024-03-17T02:12:55;9.20;;;5.22;;
78858;SDS011;68210;52.032;4.634;2024-03-17T02:14:55;8.30;;;4.85;;
78858;SDS011;68210;52.032;4.634;2024-03-17T02:16:56;12.02;;;5.55;;
78858;SDS011;68210;52.032;4.634;2024-03-17T02:18:57;12.18;;;6.00;;
78858;SDS011;68210;52.032;4.634;2024-03-17T02:20:58;14.70;;;4.85;;
78858;SDS011;68210;52.032;4.634;2024-03-17T02:25:01;10.53;;;5.53;;
78858;SDS011;68210;52.032;4.634;2024-03-17T02:27:02;10.95;;;6.03;;
78858;SDS011;68210;52.032;4.634;2024-03-17T02:29:03;10.73;;;5.72;;
78858;SDS011;68210;52.032;4.634;2024-03-17T02:31:03;12.10;;;6.10;;
78858;SDS011;68210;52.032;4.634;2024-03-17T02:33:05;10.23;;;6.15;;
78858;SDS011;68210;52.032;4.634;2024-03-17T02:35:05;12.38;;;5.93;;
78858;SDS011;68210;52.032;4.634;2024-03-17T02:37:06;10.25;;;5.00;;
78858;SDS011;68210;52.032;4.634;2024-03-17T02:39:07;13.05;;;5.78;;
78858;SDS011;68210;52.032;4.634;2024-03-17T02:41:26;12.43;;;5.25;;
78858;SDS011;68210;52.032;4.634;2024-03-17T02:43:27;10.27;;;5.75;;
78858;SDS011;68210;52.032;4.634;2024-03-17T02:45:27;9.63;;;5.78;;
78858;SDS011;68210;52.032;4.634;2024-03-17T02:47:27;10.18;;;6.47;;
78858;SDS011;68210;52.032;4.634;2024-03-17T02:49:28;11.95;;;5.28;;
78858;SDS011;68210;52.032;4.634;2024-03-17T02:51:35;10.82;;;6.13;;
78858;SDS011;68210;52.032;4.634;2024-03-17T02:53:35;10.43;;;6.20;;
78858;SDS011;68210;52.032;4.634;2024-03-17T02:55:36;11.65;;;6.63;;
78858;SDS011;68210;52.032;4.634;2024-03-17T02:57:36;10.98;;;6.95;;
78858;SDS011;68210;52.032;4.634;2024-03-17T02:59:36;9.82;;;5.65;;
78858;SDS011;68210;52.032;4.634;2024-03-17T03:01:37;9.82;;;5.90;;
78858;SDS011;68210;52.032;4.634;2024-03-17T03:03:37;14.20;;;7.78;;
78858;SDS011;68210;52.032;4.634;2024-03-17T03:05:37;9.95;;;6.15;;
78858;SDS011;68210;52.032;4.634;2024-03-17T03:07:38;10.15;;;6.03;;
78858;SDS011;68210;52.032;4.634;2024-03-17T03:09:38;11.10;;;6.28;;
78858;SDS011;68210;52.032;4.634;2024-03-17T03:11:39;11.18;;;6.20;;
78858;SDS011;68210;52.032;4.634;2024-03-17T03:13:41;12.63;;;6.10;;
78858;SDS011;68210;52.032;4.634;2024-03-17T03:15:43;11.98;;;5.93;;
78858;SDS011;68210;52.032;4.634;2024-03-17T03:17:43;12.60;;;7.00;;
78858;SDS011;68210;52.032;4.634;2024-03-17T03:19:44;14.38;;;6.55;;
78858;SDS011;68210;52.032;4.634;2024-03-17T03:21:44;14.32;;;5.95;;
78858;SDS011;68210;52.032;4.634;2024-03-17T03:23:45;13.93;;;6.75;;
78858;SDS011;68210;52.032;4.634;2024-03-17T03:25:46;13.40;;;5.75;;
78858;SDS011;68210;52.032;4.634;2024-03-17T03:27:47;10.13;;;6.22;;
78858;SDS011;68210;52.032;4.634;2024-03-17T03:29:49;9.43;;;6.22;;
78858;SDS011;68210;52.032;4.634;2024-03-17T03:31:49;12.20;;;6.18;;
78858;SDS011;68210;52.032;4.634;2024-03-17T03:33:49;9.95;;;6.85;;
78858;SDS011;68210;52.032;4.634;2024-03-17T03:35:50;9.95;;;6.28;;
78858;SDS011;68210;52.032;4.634;2024-03-17T03:37:50;8.43;;;6.05;;
78858;SDS011;68210;52.032;4.634;2024-03-17T03:39:51;11.82;;;6.22;;
78858;SDS011;68210;52.032;4.634;2024-03-17T03:41:52;10.80;;;5.82;;
78858;SDS011;68210;52.032;4.634;2024-03-17T03:43:52;11.70;;;5.82;;
78858;SDS011;68210;52.032;4.634;2024-03-17T03:45:53;10.73;;;5.70;;
78858;SDS011;68210;52.032;4.634;2024-03-17T03:47:53;9.07;;;5.63;;
78858;SDS011;68210;52.032;4.634;2024-03-17T03:49:53;10.50;;;6.00;;
78858;SDS011;68210;52.032;4.634;2024-03-17T03:51:54;8.75;;;5.85;;
78858;SDS011;68210;52.032;4.634;2024-03-17T03:53:54;11.50;;;6.63;;
78858;SDS011;68210;52.032;4.634;2024-03-17T03:55:55;13.07;;;6.85;;
78858;SDS011;68210;52.032;4.634;2024-03-17T03:57:55;13.57;;;6.53;;
78858;SDS011;68210;52.032;4.634;2024-03-17T03:59:56;11.07;;;6.07;;
78858;SDS011;68210;52.032;4.634;2024-03-17T04:01:57;12.45;;;5.68;;
78858;SDS011;68210;52.032;4.634;2024-03-17T04:03:58;9.38;;;6.00;;
78858;SDS011;68210;52.032;4.634;2024-03-17T04:06:05;12.07;;;6.97;;
78858;SDS011;68210;52.032;4.634;2024-03-17T04:08:07;12.43;;;6.65;;
78858;SDS011;68210;52.032;4.634;2024-03-17T04:10:09;11.20;;;5.85;;
78858;SDS011;68210;52.032;4.634;2024-03-17T04:12:09;11.75;;;6.22;;
78858;SDS011;68210;52.032;4.634;2024-03-17T04:14:10;11.27;;;5.72;;
78858;SDS011;68210;52.032;4.634;2024-03-17T04:16:10;13.50;;;6.22;;
78858;SDS011;68210;52.032;4.634;2024-03-17T04:18:10;9.38;;;6.22;;
78858;SDS011;68210;52.032;4.634;2024-03-17T04:20:11;11.18;;;5.90;;
78858;SDS011;68210;52.032;4.634;2024-03-17T04:22:15;14.32;;;7.05;;
78858;SDS011;68210;52.032;4.634;2024-03-17T04:24:16;11.82;;;6.80;;
78858;SDS011;68210;52.032;4.634;2024-03-17T04:26:16;14.90;;;7.07;;
78858;SDS011;68210;52.032;4.634;2024-03-17T04:28:18;10.80;;;5.45;;
78858;SDS011;68210;52.032;4.634;2024-03-17T04:30:18;12.75;;;6.70;;
78858;SDS011;68210;52.032;4.634;2024-03-17T04:32:20;9.57;;;5.95;;
78858;SDS011;68210;52.032;4.634;2024-03-17T04:34:20;13.15;;;6.40;;
78858;SDS011;68210;52.032;4.634;2024-03-17T04:36:21;10.45;;;6.35;;
78858;SDS011;68210;52.032;4.634;2024-03-17T04:38:22;11.73;;;6.50;;
78858;SDS011;68210;52.032;4.634;2024-03-17T04:40:22;15.60;;;7.22;;
78858;SDS011;68210;52.032;4.634;2024-03-17T04:42:23;11.88;;;5.78;;
78858;SDS011;68210;52.032;4.634;2024-03-17T04:44:23;12.50;;;6.65;;
78858;SDS011;68210;52.032;4.634;2024-03-17T04:46:23;9.52;;;6.07;;
78858;SDS011;68210;52.032;4.634;2024-03-17T04:48:24;10.15;;;6.55;;
78858;SDS011;68210;52.032;4.634;2024-03-17T04:50:24;9.43;;;5.95;;
78858;SDS011;68210;52.032;4.634;2024-03-17T04:52:26;10.52;;;6.75;;
78858;SDS011;68210;52.032;4.634;2024-03-17T04:54:26;14.02;;;6.57;;
78858;SDS011;68210;52.032;4.634;2024-03-17T04:56:27;10.45;;;7.07;;
78858;SDS011;68210;52.032;4.634;2024-03-17T04:58:27;8.02;;;4.45;;
78858;SDS011;68210;52.032;4.634;2024-03-17T05:00:27;11.05;;;6.35;;
78858;SDS011;68210;52.032;4.634;2024-03-17T05:02:28;11.25;;;6.22;;
78858;SDS011;68210;52.032;4.634;2024-03-17T05:04:29;12.38;;;6.78;;
78858;SDS011;68210;52.032;4.634;2024-03-17T05:06:30;12.23;;;6.78;;
78858;SDS011;68210;52.032;4.634;2024-03-17T05:08:31;11.60;;;5.82;;
78858;SDS011;68210;52.032;4.634;2024-03-17T05:10:32;9.80;;;5.78;;
78858;SDS011;68210;52.032;4.634;2024-03-17T05:12:33;10.75;;;6.20;;
78858;SDS011;68210;52.032;4.634;2024-03-17T05:14:33;12.95;;;6.82;;
78858;SDS011;68210;52.032;4.634;2024-03-17T05:16:33;12.75;;;6.55;;
78858;SDS011;68210;52.032;4.634;2024-03-17T05:18:34;11.02;;;6.72;;
78858;SDS011;68210;52.032;4.634;2024-03-17T05:20:35;11.13;;;6.50;;
78858;SDS011;68210;52.032;4.634;2024-03-17T05:22:35;11.60;;;6.15;;
78858;SDS011;68210;52.032;4.634;2024-03-17T05:24:36;13.65;;;6.38;;
78858;SDS011;68210;52.032;4.634;2024-03-17T05:26:36;13.23;;;6.63;;
78858;SDS011;68210;52.032;4.634;2024-03-17T05:28:37;12.50;;;6.88;;
78858;SDS011;68210;52.032;4.634;2024-03-17T05:30:37;12.40;;;6.57;;
78858;SDS011;68210;52.032;4.634;2024-03-17T05:32:37;11.77;;;6.45;;
78858;SDS011;68210;52.032;4.634;2024-03-17T05:34:38;10.85;;;7.22;;
78858;SDS011;68210;52.032;4.634;2024-03-17T05:36:38;10.27;;;6.45;;
78858;SDS011;68210;52.032;4.634;2024-03-17T05:38:38;12.32;;;7.15;;
78858;SDS011;68210;52.032;4.634;2024-03-17T05:40:39;11.35;;;6.78;;
78858;SDS011;68210;52.032;4.634;2024-03-17T05:42:41;12.18;;;7.00;;
78858;SDS011;68210;52.032;4.634;2024-03-17T05:44:43;12.88;;;6.80;;
78858;SDS011;68210;52.032;4.634;2024-03-17T05:46:53;11.18;;;6.70;;
78858;SDS011;68210;52.032;4.634;2024-03-17T05:48:54;14.48;;;6.60;;
78858;SDS011;68210;52.032;4.634;2024-03-17T05:50:54;9.65;;;6.05;;
78858;SDS011;68210;52.032;4.634;2024-03-17T05:52:55;11.45;;;6.57;;
78858;SDS011;68210;52.032;4.634;2024-03-17T05:54:55;10.95;;;6.63;;
78858;SDS011;68210;52.032;4.634;2024-03-17T05:56:55;11.60;;;6.50;;
78858;SDS011;68210;52.032;4.634;2024-03-17T05:58:56;12.85;;;6.82;;
78858;SDS011;68210;52.032;4.634;2024-03-17T06:00:56;11.10;;;6.20;;
78858;SDS011;68210;52.032;4.634;2024-03-17T06:02:58;12.27;;;6.75;;
78858;SDS011;68210;52.032;4.634;2024-03-17T06:05:00;9.95;;;6.13;;
78858;SDS011;68210;52.032;4.634;2024-03-17T06:07:04;10.02;;;6.28;;
78858;SDS011;68210;52.032;4.634;2024-03-17T06:09:04;13.43;;;6.85;;
78858;SDS011;68210;52.032;4.634;2024-03-17T06:11:09;9.57;;;6.78;;
78858;SDS011;68210;52.032;4.634;2024-03-17T06:13:10;14.13;;;7.43;;
78858;SDS011;68210;52.032;4.634;2024-03-17T06:15:15;13.02;;;6.25;;
78858;SDS011;68210;52.032;4.634;2024-03-17T06:17:16;10.40;;;5.95;;
78858;SDS011;68210;52.032;4.634;2024-03-17T06:19:16;14.18;;;6.85;;
78858;SDS011;68210;52.032;4.634;2024-03-17T06:21:17;9.55;;;4.75;;
78858;SDS011;68210;52.032;4.634;2024-03-17T06:23:17;13.48;;;6.70;;
78858;SDS011;68210;52.032;4.634;2024-03-17T06:25:18;10.75;;;6.72;;
78858;SDS011;68210;52.032;4.634;2024-03-17T06:27:18;12.25;;;6.00;;
78858;SDS011;68210;52.032;4.634;2024-03-17T06:29:19;12.10;;;6.60;;
78858;SDS011;68210;52.032;4.634;2024-03-17T06:31:19;11.73;;;6.85;;
78858;SDS011;68210;52.032;4.634;2024-03-17T06:33:20;13.27;;;6.88;;
78858;SDS011;68210;52.032;4.634;2024-03-17T06:35:20;11.40;;;6.53;;
78858;SDS011;68210;52.032;4.634;2024-03-17T06:37:25;12.77;;;6.32;;
78858;SDS011;68210;52.032;4.634;2024-03-17T06:39:26;10.45;;;6.35;;
78858;SDS011;68210;52.032;4.634;2024-03-17T06:41:26;9.20;;;5.53;;
78858;SDS011;68210;52.032;4.634;2024-03-17T06:43:26;13.73;;;6.30;;
78858;SDS011;68210;52.032;4.634;2024-03-17T06:45:27;13.88;;;6.63;;
78858;SDS011;68210;52.032;4.634;2024-03-17T06:47:27;11.27;;;6.70;;
78858;SDS011;68210;52.032;4.634;2024-03-17T06:49:27;15.48;;;7.28;;
78858;SDS011;68210;52.032;4.634;2024-03-17T06:51:28;8.98;;;5.20;;
78858;SDS011;68210;52.032;4.634;2024-03-17T06:53:28;11.25;;;6.05;;
78858;SDS011;68210;52.032;4.634;2024-03-17T06:55:29;12.52;;;6.65;;
78858;SDS011;68210;52.032;4.634;2024-03-17T06:57:29;10.23;;;6.35;;
78858;SDS011;68210;52.032;4.634;2024-03-17T06:59:32;11.80;;;6.85;;
78858;SDS011;68210;52.032;4.634;2024-03-17T07:01:33;11.18;;;6.88;;
78858;SDS011;68210;52.032;4.634;2024-03-17T07:03:34;12.68;;;5.95;;
78858;SDS011;68210;52.032;4.634;2024-03-17T07:05:34;11.23;;;6.85;;
78858;SDS011;68210;52.032;4.634;2024-03-17T07:07:35;10.55;;;6.38;;
78858;SDS011;68210;52.032;4.634;2024-03-17T07:09:35;10.45;;;6.40;;
78858;SDS011;68210;52.032;4.634;2024-03-17T07:11:36;11.23;;;5.72;;
78858;SDS011;68210;52.032;4.634;2024-03-17T07:13:37;12.20;;;7.85;;
78858;SDS011;68210;52.032;4.634;2024-03-17T07:15:38;13.02;;;7.07;;
78858;SDS011;68210;52.032;4.634;2024-03-17T07:17:39;13.90;;;6.53;;
78858;SDS011;68210;52.032;4.634;2024-03-17T07:19:39;12.25;;;7.22;;
78858;SDS011;68210;52.032;4.634;2024-03-17T07:21:40;18.17;;;7.50;;
78858;SDS011;68210;52.032;4.634;2024-03-17T07:23:40;14.63;;;8.02;;
78858;SDS011;68210;52.032;4.634;2024-03-17T07:25:41;14.13;;;6.72;;
78858;SDS011;68210;52.032;4.634;2024-03-17T07:27:42;13.80;;;7.35;;
78858;SDS011;68210;52.032;4.634;2024-03-17T07:29:42;12.45;;;6.82;;
78858;SDS011;68210;52.032;4.634;2024-03-17T07:31:43;12.00;;;6.57;;
78858;SDS011;68210;52.032;4.634;2024-03-17T07:33:43;12.93;;;7.22;;
78858;SDS011;68210;52.032;4.634;2024-03-17T07:35:47;10.73;;;6.25;;
78858;SDS011;68210;52.032;4.634;2024-03-17T07:37:51;11.07;;;6.40;;
78858;SDS011;68210;52.032;4.634;2024-03-17T07:39:51;12.10;;;6.85;;
78858;SDS011;68210;52.032;4.634;2024-03-17T07:41:51;12.40;;;6.40;;
78858;SDS011;68210;52.032;4.634;2024-03-17T07:43:52;11.40;;;6.60;;
78858;SDS011;68210;52.032;4.634;2024-03-17T07:45:59;12.05;;;6.75;;
78858;SDS011;68210;52.032;4.634;2024-03-17T07:47:59;9.93;;;5.78;;
78858;SDS011;68210;52.032;4.634;2024-03-17T07:50:00;12.35;;;7.45;;
78858;SDS011;68210;52.032;4.634;2024-03-17T07:52:04;10.80;;;6.90;;
78858;SDS011;68210;52.032;4.634;2024-03-17T07:54:04;15.75;;;7.93;;
78858;SDS011;68210;52.032;4.634;2024-03-17T07:56:08;12.57;;;6.72;;
78858;SDS011;68210;52.032;4.634;2024-03-17T07:58:09;13.48;;;8.13;;
78858;SDS011;68210;52.032;4.634;2024-03-17T08:00:09;11.43;;;6.70;;
78858;SDS011;68210;52.032;4.634;2024-03-17T08:02:15;11.13;;;6.60;;
78858;SDS011;68210;52.032;4.634;2024-03-17T08:04:16;11.05;;;7.80;;
78858;SDS011;68210;52.032;4.634;2024-03-17T08:06:16;11.95;;;6.70;;
78858;SDS011;68210;52.032;4.634;2024-03-17T08:08:16;13.05;;;7.90;;
78858;SDS011;68210;52.032;4.634;2024-03-17T08:10:17;11.00;;;5.93;;
78858;SDS011;68210;52.032;4.634;2024-03-17T08:12:17;9.45;;;5.43;;
78858;SDS011;68210;52.032;4.634;2024-03-17T08:14:18;14.63;;;7.65;;
78858;SDS011;68210;52.032;4.634;2024-03-17T08:16:18;16.30;;;8.02;;
78858;SDS011;68210;52.032;4.634;2024-03-17T08:18:18;11.60;;;6.45;;
78858;SDS011;68210;52.032;4.634;2024-03-17T08:20:19;12.30;;;7.32;;
78858;SDS011;68210;52.032;4.634;2024-03-17T08:22:19;15.68;;;7.10;;
78858;SDS011;68210;52.032;4.634;2024-03-17T08:24:19;13.18;;;7.30;;
78858;SDS011;68210;52.032;4.634;2024-03-17T08:26:20;13.57;;;7.70;;
78858;SDS011;68210;52.032;4.634;2024-03-17T08:28:20;12.07;;;7.38;;
78858;SDS011;68210;52.032;4.634;2024-03-17T08:30:21;10.52;;;6.50;;
78858;SDS011;68210;52.032;4.634;2024-03-17T08:32:21;12.57;;;7.00;;
78858;SDS011;68210;52.032;4.634;2024-03-17T08:34:22;10.77;;;5.93;;
78858;SDS011;68210;52.032;4.634;2024-03-17T08:36:22;13.07;;;6.90;;
78858;SDS011;68210;52.032;4.634;2024-03-17T08:38:23;14.50;;;7.55;;
78858;SDS011;68210;52.032;4.634;2024-03-17T08:40:24;11.43;;;6.05;;
78858;SDS011;68210;52.032;4.634;2024-03-17T08:42:24;12.90;;;7.30;;
78858;SDS011;68210;52.032;4.634;2024-03-17T08:44:25;11.70;;;6.47;;
78858;SDS011;68210;52.032;4.634;2024-03-17T08:46:25;12.98;;;7.35;;
78858;SDS011;68210;52.032;4.634;2024-03-17T08:48:26;11.27;;;6.75;;
78858;SDS011;68210;52.032;4.634;2024-03-17T08:50:27;10.50;;;7.32;;
78858;SDS011;68210;52.032;4.634;2024-03-17T08:52:28;14.38;;;7.88;;
78858;SDS011;68210;52.032;4.634;2024-03-17T08:54:28;12.75;;;6.32;;
78858;SDS011;68210;52.032;4.634;2024-03-17T08:56:29;10.77;;;6.88;;
78858;SDS011;68210;52.032;4.634;2024-03-17T08:58:29;10.75;;;5.95;;
78858;SDS011;68210;52.032;4.634;2024-03-17T09:00:30;11.57;;;6.75;;
78858;SDS011;68210;52.032;4.634;2024-03-17T09:02:32;10.82;;;6.50;;
78858;SDS011;68210;52.032;4.634;2024-03-17T09:04:32;11.93;;;6.93;;
78858;SDS011;68210;52.032;4.634;2024-03-17T09:06:32;15.10;;;7.00;;
78858;SDS011;68210;52.032;4.634;2024-03-17T09:08:34;12.95;;;5.97;;
78858;SDS011;68210;52.032;4.634;2024-03-17T09:10:41;14.35;;;7.45;;
78858;SDS011;68210;52.032;4.634;2024-03-17T09:12:42;11.68;;;6.70;;
78858;SDS011;68210;52.032;4.634;2024-03-17T09:14:42;9.70;;;5.82;;
78858;SDS011;68210;52.032;4.634;2024-03-17T09:16:47;14.30;;;7.60;;
78858;SDS011;68210;52.032;4.634;2024-03-17T09:18:48;15.10;;;7.43;;
78858;SDS011;68210;52.032;4.634;2024-03-17T09:20:55;15.23;;;7.63;;
78858;SDS011;68210;52.032;4.634;2024-03-17T09:23:02;12.05;;;6.93;;
78858;SDS011;68210;52.032;4.634;2024-03-17T09:25:04;17.75;;;7.93;;
78858;SDS011;68210;52.032;4.634;2024-03-17T09:27:07;12.98;;;6.85;;
78858;SDS011;68210;52.032;4.634;2024-03-17T09:29:08;11.75;;;6.95;;
78858;SDS011;68210;52.032;4.634;2024-03-17T09:31:08;14.77;;;7.40;;
78858;SDS011;68210;52.032;4.634;2024-03-17T09:33:11;11.35;;;7.07;;
78858;SDS011;68210;52.032;4.634;2024-03-17T09:35:11;10.70;;;6.55;;
78858;SDS011;68210;52.032;4.634;2024-03-17T09:37:12;10.48;;;5.93;;
78858;SDS011;68210;52.032;4.634;2024-03-17T09:39:12;16.92;;;6.88;;
78858;SDS011;68210;52.032;4.634;2024-03-17T09:41:19;12.10;;;7.47;;
78858;SDS011;68210;52.032;4.634;2024-03-17T09:43:22;11.88;;;6.32;;
78858;SDS011;68210;52.032;4.634;2024-03-17T09:45:24;12.45;;;6.80;;
78858;SDS011;68210;52.032;4.634;2024-03-17T09:47:24;9.57;;;6.13;;
78858;SDS011;68210;52.032;4.634;2024-03-17T09:49:26;11.60;;;6.63;;
78858;SDS011;68210;52.032;4.634;2024-03-17T09:51:26;13.38;;;6.70;;
78858;SDS011;68210;52.032;4.634;2024-03-17T09:53:30;11.32;;;6.50;;
78858;SDS011;68210;52.032;4.634;2024-03-17T09:55:32;10.80;;;6.68;;
78858;SDS011;68210;52.032;4.634;2024-03-17T09:57:33;11.05;;;6.20;;
78858;SDS011;68210;52.032;4.634;2024-03-17T09:59:35;10.52;;;6.30;;
78858;SDS011;68210;52.032;4.634;2024-03-17T10:01:35;11.50;;;5.90;;
78858;SDS011;68210;52.032;4.634;2024-03-17T10:03:39;15.85;;;6.30;;
78858;SDS011;68210;52.032;4.634;2024-03-17T10:05:50;12.45;;;6.57;;
78858;SDS011;68210;52.032;4.634;2024-03-17T10:07:59;11.43;;;6.53;;
78858;SDS011;68210;52.032;4.634;2024-03-17T10:10:33;10.85;;;6.07;;
78858;SDS011;68210;52.032;4.634;2024-03-17T10:12:27;9.32;;;5.72;;
78858;SDS011;68210;52.032;4.634;2024-03-17T10:14:28;9.50;;;6.43;;
78858;SDS011;68210;52.032;4.634;2024-03-17T10:16:29;11.63;;;6.22;;
78858;SDS011;68210;52.032;4.634;2024-03-17T10:18:31;11.70;;;6.15;;
78858;SDS011;68210;52.032;4.634;2024-03-17T10:20:31;9.77;;;6.20;;
78858;SDS011;68210;52.032;4.634;2024-03-17T10:22:32;10.88;;;5.30;;
78858;SDS011;68210;52.032;4.634;2024-03-17T10:24:32;12.30;;;5.80;;
78858;SDS011;68210;52.032;4.634;2024-03-17T10:28:46;8.75;;;5.72;;
78858;SDS011;68210;52.032;4.634;2024-03-17T10:30:59;13.73;;;6.43;;
78858;SDS011;68210;52.032;4.634;2024-03-17T10:33:01;11.57;;;6.18;;
78858;SDS011;68210;52.032;4.634;2024-03-17T10:35:01;10.02;;;6.05;;
78858;SDS011;68210;52.032;4.634;2024-03-17T10:39:26;10.00;;;5.55;;
78858;SDS011;68210;52.032;4.634;2024-03-17T10:41:30;11.38;;;5.43;;
78858;SDS011;68210;52.032;4.634;2024-03-17T10:43:33;9.30;;;5.45;;
78858;SDS011;68210;52.032;4.634;2024-03-17T10:45:34;9.73;;;6.25;;
78858;SDS011;68210;52.032;4.634;2024-03-17T10:50:36;11.88;;;6.10;;
78858;SDS011;68210;52.032;4.634;2024-03-17T10:52:38;10.52;;;5.78;;
78858;SDS011;68210;52.032;4.634;2024-03-17T10:54:49;9.15;;;5.40;;
78858;SDS011;68210;52.032;4.634;2024-03-17T10:56:52;10.75;;;5.47;;
78858;SDS011;68210;52.032;4.634;2024-03-17T10:58:53;8.82;;;4.80;;
78858;SDS011;68210;52.032;4.634;2024-03-17T11:00:57;11.75;;;6.05;;
78858;SDS011;68210;52.032;4.634;2024-03-17T11:02:59;11.65;;;5.80;;
78858;SDS011;68210;52.032;4.634;2024-03-17T11:05:00;11.75;;;7.07;;
78858;SDS011;68210;52.032;4.634;2024-03-17T11:07:02;10.23;;;5.55;;
78858;SDS011;68210;52.032;4.634;2024-03-17T11:09:03;10.43;;;5.80;;
78858;SDS011;68210;52.032;4.634;2024-03-17T11:11:04;9.85;;;6.45;;
78858;SDS011;68210;52.032;4.634;2024-03-17T11:13:04;7.07;;;4.38;;
78858;SDS011;68210;52.032;4.634;2024-03-17T11:15:50;9.85;;;5.72;;
78858;SDS011;68210;52.032;4.634;2024-03-17T11:17:25;10.57;;;5.32;;
78858;SDS011;68210;52.032;4.634;2024-03-17T11:19:25;10.02;;;5.53;;
78858;SDS011;68210;52.032;4.634;2024-03-17T11:21:27;11.90;;;5.03;;
78858;SDS011;68210;52.032;4.634;2024-03-17T11:23:29;9.82;;;5.97;;
78858;SDS011;68210;52.032;4.634;2024-03-17T11:27:41;11.20;;;5.63;;
78858;SDS011;68210;52.032;4.634;2024-03-17T11:29:42;12.32;;;5.78;;
78858;SDS011;68210;52.032;4.634;2024-03-17T11:31:43;10.95;;;6.35;;
78858;SDS011;68210;52.032;4.634;2024-03-17T11:35:45;12.85;;;5.78;;
78858;SDS011;68210;52.032;4.634;2024-03-17T11:37:45;9.95;;;5.40;;
78858;SDS011;68210;52.032;4.634;2024-03-17T11:39:47;8.73;;;5.00;;
78858;SDS011;68210;52.032;4.634;2024-03-17T11:41:50;11.52;;;6.18;;
78858;SDS011;68210;52.032;4.634;2024-03-17T11:43:50;9.02;;;5.57;;
78858;SDS011;68210;52.032;4.634;2024-03-17T11:45:54;11.30;;;5.88;;
78858;SDS011;68210;52.032;4.634;2024-03-17T11:47:54;11.40;;;5.72;;
78858;SDS011;68210;52.032;4.634;2024-03-17T11:49:55;8.30;;;5.50;;
78858;SDS011;68210;52.032;4.634;2024-03-17T11:52:17;10.73;;;6.15;;
78858;SDS011;68210;52.032;4.634;2024-03-17T11:54:20;12.85;;;6.30;;
78858;SDS011;68210;52.032;4.634;2024-03-17T11:56:23;13.73;;;6.30;;
78858;SDS011;68210;52.032;4.634;2024-03-17T11:58:24;11.77;;;6.55;;
78858;SDS011;68210;52.032;4.634;2024-03-17T12:00:24;16.17;;;7.65;;
78858;SDS011;68210;52.032;4.634;2024-03-17T12:02:29;10.10;;;5.93;;
78858;SDS011;68210;52.032;4.634;2024-03-17T12:04:31;12.70;;;6.38;;
78858;SDS011;68210;52.032;4.634;2024-03-17T12:06:31;13.18;;;6.60;;
78858;SDS011;68210;52.032;4.634;2024-03-17T12:08:32;11.30;;;6.60;;
78858;SDS011;68210;52.032;4.634;2024-03-17T12:10:33;13.13;;;5.95;;
78858;SDS011;68210;52.032;4.634;2024-03-17T12:12:34;11.75;;;5.22;;
78858;SDS011;68210;52.032;4.634;2024-03-17T12:14:39;11.10;;;5.82;;
78858;SDS011;68210;52.032;4.634;2024-03-17T12:16:46;11.07;;;4.93;;
78858;SDS011;68210;52.032;4.634;2024-03-17T12:18:48;11.32;;;6.32;;